Time;durP1;ratioP1;P1;durP2;ratioP2;P2;SDS_P1;SDS_P2;PMS_P1;PMS_P2;Temp;Humidity;BMP_temperature;BMP_pressure;BME280_temperature;BME280_humidity;BME280_pressure;Samples;Min_cycle;Max_cycle;Signal;HPM_P1;HPM_P2
2021/01/25 00:00:10;;;;;;;65.90;20.30;;;2.20;99.90;;;;;;5005095;28;20188;-76
2021/01/25 00:02:38;;;;;;;65.53;18.45;;;2.10;99.90;;;;;;5005004;28;20044;-76
2021/01/25 00:05:05;;;;;;;67.55;20.00;;;2.10;99.90;;;;;;5006040;28;20502;-76
2021/01/25 00:07:31;;;;;;;62.83;18.63;;;2.20;99.90;;;;;;4987311;28;20049;-76
2021/01/25 00:09:57;;;;;;;72.63;18.13;;;2.20;99.90;;;;;;5002163;28;20031;-76
2021/01/25 00:12:22;;;;;;;67.88;18.45;;;2.30;99.90;;;;;;5002962;28;20030;-77
2021/01/25 00:14:48;;;;;;;60.60;18.88;;;2.30;99.90;;;;;;5005133;28;20493;-76
2021/01/25 00:17:14;;;;;;;59.72;19.60;;;2.20;99.90;;;;;;5006079;28;20109;-75
2021/01/25 00:19:40;;;;;;;71.25;17.98;;;2.20;99.90;;;;;;5005054;28;20165;-76
2021/01/25 00:22:05;;;;;;;63.95;18.55;;;2.10;99.90;;;;;;5005129;28;20808;-76
2021/01/25 00:24:31;;;;;;;67.78;20.25;;;2.10;99.90;;;;;;5004855;28;20026;-76
2021/01/25 00:26:57;;;;;;;69.57;19.92;;;2.10;99.90;;;;;;5005413;28;20038;-76
2021/01/25 00:29:23;;;;;;;66.55;19.50;;;2.10;99.90;;;;;;5004703;28;20063;-76
2021/01/25 00:31:48;;;;;;;66.32;18.75;;;2.20;99.90;;;;;;5005719;28;20379;-77
2021/01/25 00:34:14;;;;;;;73.10;20.13;;;2.10;99.90;;;;;;5005486;28;20025;-76
2021/01/25 00:36:40;;;;;;;67.82;18.95;;;2.20;99.90;;;;;;5003270;28;20410;-76
2021/01/25 00:39:06;;;;;;;63.50;19.60;;;2.20;99.90;;;;;;5004843;28;20045;-76
2021/01/25 00:41:32;;;;;;;65.78;19.42;;;2.20;99.90;;;;;;5005042;28;20030;-76
2021/01/25 00:43:58;;;;;;;69.05;18.52;;;2.10;99.90;;;;;;5005871;28;20108;-76
2021/01/25 00:46:24;;;;;;;65.47;19.92;;;2.10;99.90;;;;;;5004818;28;20570;-76
2021/01/25 00:48:50;;;;;;;68.78;20.23;;;2.20;99.90;;;;;;5004128;28;20191;-75
2021/01/25 00:51:16;;;;;;;68.93;19.35;;;2.20;99.90;;;;;;5003367;28;20084;-75
2021/01/25 00:53:41;;;;;;;66.07;20.85;;;2.20;99.90;;;;;;5004653;28;20774;-76
2021/01/25 00:56:10;;;;;;;61.90;21.15;;;2.20;99.90;;;;;;5003896;28;20233;-76
2021/01/25 00:58:38;;;;;;;60.08;19.75;;;2.20;99.90;;;;;;5003421;28;20061;-76
2021/01/25 01:01:04;;;;;;;67.32;22.08;;;2.10;99.90;;;;;;5004659;28;20045;-76
2021/01/25 01:03:30;;;;;;;63.42;21.08;;;2.20;99.90;;;;;;5004799;28;20887;-76
2021/01/25 01:05:55;;;;;;;60.47;21.13;;;2.20;99.90;;;;;;5003160;28;20105;-76
2021/01/25 01:08:21;;;;;;;63.65;23.15;;;2.20;99.90;;;;;;5004368;28;20029;-76
2021/01/25 01:10:47;;;;;;;59.45;20.63;;;2.10;99.90;;;;;;5005017;28;20034;-76
2021/01/25 01:13:13;;;;;;;55.35;21.27;;;2.20;99.90;;;;;;5004781;28;20474;-75
2021/01/25 01:15:38;;;;;;;58.90;21.23;;;2.10;99.90;;;;;;5005130;28;20030;-76
2021/01/25 01:18:05;;;;;;;59.00;20.40;;;2.10;99.90;;;;;;5003398;28;20029;-76
2021/01/25 01:20:31;;;;;;;53.95;21.10;;;2.20;99.90;;;;;;5017333;28;20041;-76
2021/01/25 01:22:56;;;;;;;54.65;20.92;;;2.20;99.90;;;;;;4995887;28;20045;-76
2021/01/25 01:25:22;;;;;;;56.95;22.05;;;2.20;99.90;;;;;;5003207;28;20038;-75
2021/01/25 01:27:48;;;;;;;54.80;22.30;;;2.20;99.90;;;;;;5004911;28;20041;-76
2021/01/25 01:30:14;;;;;;;49.78;20.77;;;2.20;99.90;;;;;;5002807;28;20040;-76
2021/01/25 01:32:40;;;;;;;46.30;20.05;;;2.20;99.90;;;;;;5001862;28;20034;-76
2021/01/25 01:35:07;;;;;;;47.30;19.67;;;2.10;99.90;;;;;;5004107;28;20186;-75
2021/01/25 01:37:33;;;;;;;42.38;17.88;;;2.10;99.90;;;;;;5003149;28;20037;-74
2021/01/25 01:40:00;;;;;;;45.80;20.55;;;2.10;99.90;;;;;;5004232;28;20123;-75
2021/01/25 01:42:25;;;;;;;45.80;19.02;;;2.00;99.90;;;;;;4986786;28;20030;-75
2021/01/25 01:44:51;;;;;;;43.45;19.17;;;2.00;99.90;;;;;;5004671;28;20037;-74
2021/01/25 01:47:20;;;;;;;45.47;19.33;;;1.90;99.90;;;;;;5004056;28;20026;-75
2021/01/25 01:49:46;;;;;;;44.80;19.70;;;1.90;99.90;;;;;;5002888;28;20828;-75
2021/01/25 01:52:12;;;;;;;47.10;18.83;;;1.80;99.90;;;;;;5001661;28;20104;-75
2021/01/25 01:54:41;;;;;;;45.85;18.92;;;1.90;99.90;;;;;;5002896;28;20026;-75
2021/01/25 01:57:07;;;;;;;39.50;18.00;;;1.80;99.90;;;;;;5003180;28;20116;-75
2021/01/25 01:59:33;;;;;;;36.03;16.67;;;1.60;99.90;;;;;;5003301;28;20812;-75
2021/01/25 02:01:58;;;;;;;37.20;17.17;;;1.60;99.90;;;;;;5004891;28;20049;-75
2021/01/25 02:04:25;;;;;;;41.65;18.10;;;1.50;99.90;;;;;;5002107;28;20034;-75
2021/01/25 02:06:53;;;;;;;38.58;18.13;;;1.50;99.90;;;;;;4996162;28;20042;-75
2021/01/25 02:09:19;;;;;;;36.20;16.85;;;1.50;99.90;;;;;;5003106;28;20041;-75
2021/01/25 02:11:45;;;;;;;38.72;17.02;;;1.50;99.90;;;;;;4998556;28;20039;-75
2021/01/25 02:14:12;;;;;;;43.28;18.90;;;1.30;99.90;;;;;;4985022;28;20073;-75
2021/01/25 02:16:39;;;;;;;37.67;16.50;;;1.30;99.90;;;;;;5004235;28;20026;-75
2021/01/25 02:19:08;;;;;;;45.47;19.38;;;1.30;99.90;;;;;;5003114;28;20107;-75
2021/01/25 02:21:34;;;;;;;47.45;18.52;;;1.40;99.90;;;;;;5002499;28;20037;-75
2021/01/25 02:24:20;;;;;;;48.38;19.95;;;1.30;99.90;;;;;;5003662;28;20040;-75
2021/01/25 02:27:30;;;;;;;51.92;20.92;;;1.40;99.90;;;;;;5001092;28;20037;-76
2021/01/25 02:29:58;;;;;;;50.25;19.88;;;1.40;99.90;;;;;;4961738;28;20066;-76
2021/01/25 02:32:25;;;;;;;48.15;20.33;;;1.50;99.90;;;;;;4995349;28;20049;-75
2021/01/25 02:34:52;;;;;;;49.45;19.92;;;1.50;99.90;;;;;;4999147;28;20556;-75
2021/01/25 02:37:19;;;;;;;55.03;21.05;;;1.50;99.90;;;;;;5004416;28;20506;-75
2021/01/25 02:39:46;;;;;;;52.75;21.27;;;1.40;99.90;;;;;;5004349;28;20069;-75
2021/01/25 02:42:12;;;;;;;46.42;20.58;;;1.30;99.90;;;;;;4999936;28;20049;-76
2021/01/25 02:44:39;;;;;;;47.05;19.70;;;1.20;99.90;;;;;;4996581;28;20043;-76
2021/01/25 02:47:04;;;;;;;56.92;21.75;;;1.10;99.90;;;;;;4995753;28;20557;-76
2021/01/25 02:49:30;;;;;;;51.33;20.77;;;1.00;99.90;;;;;;4994320;28;20042;-75
2021/01/25 02:51:56;;;;;;;52.92;19.88;;;0.90;99.90;;;;;;4995802;28;20030;-75
2021/01/25 02:54:22;;;;;;;63.60;21.95;;;0.90;99.90;;;;;;5002433;28;20037;-75
2021/01/25 02:56:48;;;;;;;69.80;22.88;;;1.00;99.90;;;;;;5002917;28;20026;-75
2021/01/25 02:59:15;;;;;;;67.63;23.33;;;1.10;99.90;;;;;;4998123;28;20447;-75
2021/01/25 03:01:43;;;;;;;68.10;23.98;;;1.20;99.90;;;;;;5003495;28;20049;-75
2021/01/25 03:04:09;;;;;;;74.82;25.90;;;1.20;99.90;;;;;;5002547;28;20053;-74
2021/01/25 03:06:35;;;;;;;78.53;28.20;;;1.30;99.90;;;;;;5003063;28;20591;-75
2021/01/25 03:09:01;;;;;;;75.18;25.83;;;1.50;99.90;;;;;;5003306;28;20034;-75
2021/01/25 03:11:27;;;;;;;85.40;27.02;;;1.50;99.90;;;;;;5003554;28;20454;-75
2021/01/25 03:13:52;;;;;;;74.55;26.85;;;1.50;99.90;;;;;;5003152;28;20030;-75
2021/01/25 03:16:18;;;;;;;74.70;26.20;;;1.50;99.90;;;;;;5001954;28;20037;-75
2021/01/25 03:18:44;;;;;;;70.65;25.80;;;1.40;99.90;;;;;;5003264;28;20545;-75
2021/01/25 03:21:10;;;;;;;68.03;24.20;;;1.40;99.90;;;;;;5001695;28;20292;-76
2021/01/25 03:23:38;;;;;;;64.38;25.15;;;1.40;99.90;;;;;;5006101;28;20453;-76
2021/01/25 03:26:04;;;;;;;70.00;25.02;;;1.40;99.90;;;;;;5006450;28;20096;-75
2021/01/25 03:28:29;;;;;;;70.45;26.45;;;1.50;99.90;;;;;;5007335;28;20026;-75
2021/01/25 03:30:55;;;;;;;65.20;24.85;;;1.40;99.90;;;;;;5006733;28;20068;-75
2021/01/25 03:33:21;;;;;;;66.07;24.45;;;1.40;99.90;;;;;;5005245;28;20026;-76
2021/01/25 03:35:46;;;;;;;70.30;25.77;;;1.50;99.90;;;;;;5006522;28;20030;-76
2021/01/25 03:38:12;;;;;;;68.13;25.75;;;1.50;99.90;;;;;;5005679;28;20148;-76
2021/01/25 03:40:38;;;;;;;73.07;25.33;;;1.50;99.90;;;;;;5006354;28;20052;-76
2021/01/25 03:43:03;;;;;;;61.65;25.20;;;1.50;99.90;;;;;;5005973;28;20137;-76
2021/01/25 03:45:29;;;;;;;66.25;25.88;;;1.40;99.90;;;;;;5005759;28;20034;-77
2021/01/25 03:47:55;;;;;;;69.28;26.05;;;1.40;99.90;;;;;;5005362;28;20044;-77
2021/01/25 03:50:21;;;;;;;68.05;25.55;;;1.30;99.90;;;;;;5005707;28;20045;-77
2021/01/25 03:52:46;;;;;;;63.45;24.85;;;1.40;99.90;;;;;;5004817;28;20528;-77
2021/01/25 03:55:12;;;;;;;67.72;26.65;;;1.30;99.90;;;;;;5006094;28;20045;-77
2021/01/25 03:57:38;;;;;;;66.35;26.55;;;1.30;99.90;;;;;;5005520;28;20038;-76
2021/01/25 04:00:06;;;;;;;57.90;23.73;;;1.20;99.90;;;;;;5004673;28;20057;-76
2021/01/25 04:02:32;;;;;;;61.03;25.40;;;1.20;99.90;;;;;;5006603;28;20030;-76
2021/01/25 04:04:58;;;;;;;56.65;24.02;;;1.10;99.90;;;;;;5005900;28;20041;-76
2021/01/25 04:07:24;;;;;;;56.83;23.75;;;1.00;99.90;;;;;;5006474;28;20105;-76
2021/01/25 04:09:49;;;;;;;57.85;23.92;;;0.80;99.90;;;;;;5004367;28;20040;-76
2021/01/25 04:12:15;;;;;;;68.75;24.95;;;0.80;99.90;;;;;;5006253;28;20029;-76
2021/01/25 04:14:41;;;;;;;67.18;26.85;;;0.80;99.90;;;;;;5006266;28;20120;-76
2021/01/25 04:17:07;;;;;;;68.82;26.63;;;0.90;99.90;;;;;;5004246;28;20037;-76
2021/01/25 04:19:33;;;;;;;62.22;25.38;;;0.90;99.90;;;;;;5004984;28;20095;-76
2021/01/25 04:21:58;;;;;;;72.57;26.70;;;0.80;99.90;;;;;;5003631;28;20501;-77
2021/01/25 04:24:24;;;;;;;69.00;25.83;;;0.70;99.90;;;;;;5003308;28;20550;-77
2021/01/25 04:26:50;;;;;;;72.07;27.25;;;0.70;99.90;;;;;;5005831;28;20029;-77
2021/01/25 04:29:15;;;;;;;65.57;25.45;;;0.70;99.90;;;;;;5005669;28;20025;-77
2021/01/25 04:31:41;;;;;;;77.80;26.58;;;0.80;99.90;;;;;;5004368;28;20071;-76
2021/01/25 04:34:07;;;;;;;73.75;26.63;;;0.80;99.90;;;;;;5002799;28;20149;-76
2021/01/25 04:36:33;;;;;;;72.88;27.70;;;0.80;99.90;;;;;;5004046;28;20084;-76
2021/01/25 04:38:59;;;;;;;74.93;27.02;;;0.90;99.90;;;;;;5006061;28;20045;-76
2021/01/25 04:41:27;;;;;;;72.82;27.77;;;1.00;99.90;;;;;;5003661;28;20044;-76
2021/01/25 04:43:54;;;;;;;74.30;27.98;;;1.10;99.90;;;;;;5006236;28;20032;-76
2021/01/25 04:46:22;;;;;;;73.22;27.55;;;1.10;99.90;;;;;;5003429;28;20044;-76
2021/01/25 04:48:49;;;;;;;81.05;28.05;;;1.20;99.90;;;;;;5003836;28;20042;-76
2021/01/25 04:51:15;;;;;;;77.30;27.02;;;1.30;99.90;;;;;;5004191;28;20471;-76
2021/01/25 04:53:43;;;;;;;74.72;27.00;;;1.30;99.90;;;;;;5004026;28;20038;-76
2021/01/25 04:56:11;;;;;;;67.70;26.00;;;1.20;99.90;;;;;;4987626;28;20091;-76
2021/01/25 04:58:37;;;;;;;73.47;27.65;;;1.10;99.90;;;;;;5005085;28;20038;-75
2021/01/25 05:01:03;;;;;;;78.68;28.52;;;1.10;99.90;;;;;;5004197;28;20366;-76
2021/01/25 05:03:29;;;;;;;67.93;27.23;;;1.10;99.90;;;;;;5004856;28;20036;-76
2021/01/25 05:05:56;;;;;;;71.25;27.25;;;1.20;99.90;;;;;;5004251;28;20486;-77
2021/01/25 05:08:21;;;;;;;72.85;27.10;;;1.30;99.90;;;;;;5005252;28;20057;-76
2021/01/25 05:10:48;;;;;;;71.55;26.30;;;1.30;99.90;;;;;;5004908;28;20057;-76
2021/01/25 05:13:24;;;;;;;65.07;26.50;;;1.30;99.90;;;;;;5002474;28;20168;-76
2021/01/25 05:15:52;;;;;;;60.22;25.00;;;1.30;99.90;;;;;;4998450;28;20501;-76
2021/01/25 05:18:23;;;;;;;63.10;26.05;;;1.30;99.90;;;;;;5005257;28;20033;-76
2021/01/25 05:20:56;;;;;;;58.95;24.25;;;1.30;99.90;;;;;;5004735;28;20076;-76
2021/01/25 05:23:23;;;;;;;60.50;25.83;;;1.30;99.90;;;;;;5004794;28;20056;-76
2021/01/25 05:25:49;;;;;;;54.63;24.27;;;1.30;99.90;;;;;;5002590;28;20057;-76
2021/01/25 05:28:17;;;;;;;56.20;23.30;;;1.30;99.90;;;;;;5004888;28;20065;-76
2021/01/25 05:30:43;;;;;;;55.08;23.67;;;1.30;99.90;;;;;;5004139;28;20113;-75
2021/01/25 05:33:09;;;;;;;61.95;25.17;;;1.30;99.90;;;;;;5001670;28;20042;-75
2021/01/25 05:35:35;;;;;;;54.58;23.58;;;1.40;99.90;;;;;;5003142;28;20750;-75
2021/01/25 05:38:07;;;;;;;56.60;24.23;;;1.40;99.90;;;;;;5003444;28;20069;-75
2021/01/25 05:40:35;;;;;;;56.10;23.98;;;1.40;99.90;;;;;;5000794;28;20029;-75
2021/01/25 05:43:13;;;;;;;60.13;25.50;;;1.50;99.90;;;;;;5002965;28;20048;-75
2021/01/25 05:45:38;;;;;;;57.90;26.38;;;1.50;99.90;;;;;;5000203;28;20033;-76
2021/01/25 05:48:05;;;;;;;63.72;26.20;;;1.40;99.90;;;;;;4996155;28;20022;-75
2021/01/25 05:50:38;;;;;;;61.00;26.30;;;1.40;99.90;;;;;;4994955;28;20025;-75
2021/01/25 05:53:09;;;;;;;67.30;27.23;;;1.50;99.90;;;;;;4997529;28;20044;-75
2021/01/25 05:55:35;;;;;;;63.22;27.17;;;1.40;99.90;;;;;;4998427;28;20172;-75
2021/01/25 05:58:02;;;;;;;62.40;27.52;;;1.40;99.90;;;;;;4997035;28;20511;-75
2021/01/25 06:00:29;;;;;;;73.47;30.08;;;1.40;99.90;;;;;;4999141;28;20227;-75
2021/01/25 06:02:56;;;;;;;60.75;25.15;;;1.40;99.90;;;;;;4998994;28;20486;-75
2021/01/25 06:05:30;;;;;;;64.22;26.58;;;1.50;99.90;;;;;;5012334;28;20510;-75
2021/01/25 06:08:34;;;;;;;54.72;24.02;;;1.60;99.90;;;;;;5040441;28;20112;-75
2021/01/25 06:11:14;;;;;;;63.58;24.08;;;1.60;99.90;;;;;;4990985;28;20675;-76
2021/01/25 06:14:04;;;;;;;62.85;25.95;;;1.60;99.90;;;;;;5004754;28;20038;-75
2021/01/25 06:16:34;;;;;;;67.22;25.48;;;1.50;99.90;;;;;;5007038;28;20030;-75
2021/01/25 06:19:02;;;;;;;58.33;25.58;;;1.50;99.90;;;;;;5012812;28;20044;-75
2021/01/25 06:21:33;;;;;;;66.82;25.65;;;1.60;99.90;;;;;;5007193;28;20042;-75
2021/01/25 06:24:01;;;;;;;65.25;25.25;;;1.50;99.90;;;;;;5002020;28;20145;-75
2021/01/25 06:26:30;;;;;;;70.45;27.25;;;1.50;99.90;;;;;;4980192;28;20129;-75
2021/01/25 06:29:05;;;;;;;70.00;27.92;;;1.50;99.90;;;;;;5010885;28;20960;-76
2021/01/25 06:31:35;;;;;;;63.75;27.05;;;1.50;99.90;;;;;;4998889;28;20048;-75
2021/01/25 06:34:12;;;;;;;66.40;26.95;;;1.40;99.90;;;;;;5006144;28;20080;-75
2021/01/25 06:36:40;;;;;;;67.50;27.02;;;1.50;99.90;;;;;;5006976;28;20033;-76
2021/01/25 06:39:07;;;;;;;71.15;26.90;;;1.50;99.90;;;;;;5003788;28;20034;-76
2021/01/25 06:41:38;;;;;;;73.15;27.70;;;1.50;99.90;;;;;;5012050;28;20081;-76
2021/01/25 06:44:05;;;;;;;75.55;28.00;;;1.40;99.90;;;;;;4998777;28;20034;-75
2021/01/25 06:46:34;;;;;;;70.88;27.20;;;1.50;99.90;;;;;;5012664;28;20034;-76
2021/01/25 06:49:00;;;;;;;74.80;28.45;;;1.40;99.90;;;;;;5016011;28;20765;-76
2021/01/25 06:51:29;;;;;;;76.10;30.23;;;1.40;99.90;;;;;;5010055;28;20041;-76
2021/01/25 06:53:59;;;;;;;70.13;27.60;;;1.40;99.90;;;;;;5002578;28;20069;-75
2021/01/25 06:56:25;;;;;;;73.95;28.80;;;1.40;99.90;;;;;;5003052;28;20932;-76
2021/01/25 06:58:51;;;;;;;77.78;28.88;;;1.40;99.90;;;;;;5010233;28;20109;-76
2021/01/25 07:01:19;;;;;;;73.93;29.48;;;1.30;99.90;;;;;;4986373;28;20392;-76
2021/01/25 07:03:57;;;;;;;73.85;28.60;;;1.40;99.90;;;;;;5004786;28;20741;-77
2021/01/25 07:06:34;;;;;;;70.72;28.17;;;1.40;99.90;;;;;;5018888;28;20071;-76
2021/01/25 07:09:03;;;;;;;69.88;28.73;;;1.40;99.90;;;;;;5006164;28;20486;-76
2021/01/25 07:11:29;;;;;;;73.05;29.40;;;1.40;99.90;;;;;;5010552;28;20038;-76
2021/01/25 07:13:55;;;;;;;68.80;27.77;;;1.40;99.90;;;;;;5002479;28;20511;-76
2021/01/25 07:16:23;;;;;;;76.03;28.83;;;1.40;99.90;;;;;;5009825;28;20049;-76
2021/01/25 07:18:51;;;;;;;68.78;27.52;;;1.50;99.90;;;;;;5007862;28;20056;-77
2021/01/25 07:21:18;;;;;;;72.05;27.67;;;1.40;99.90;;;;;;5007542;28;20034;-77
2021/01/25 07:23:45;;;;;;;71.38;29.38;;;1.50;99.90;;;;;;5004489;28;20030;-73
2021/01/25 07:26:13;;;;;;;79.50;29.52;;;1.50;99.90;;;;;;5007787;28;20056;-75
2021/01/25 07:28:39;;;;;;;69.93;27.75;;;1.60;99.90;;;;;;5012840;28;20883;-75
2021/01/25 07:31:05;;;;;;;83.93;30.08;;;1.60;99.90;;;;;;5015725;28;20113;-73
2021/01/25 07:33:51;;;;;;;78.80;29.55;;;1.60;99.90;;;;;;5014910;28;20029;-77
2021/01/25 07:36:17;;;;;;;87.50;31.60;;;1.60;99.90;;;;;;5000984;28;20045;-75
2021/01/25 07:38:42;;;;;;;85.30;30.55;;;1.60;99.90;;;;;;4991111;28;20037;-75
2021/01/25 07:41:09;;;;;;;81.50;30.98;;;1.70;99.90;;;;;;5010704;28;20733;-75
2021/01/25 07:43:34;;;;;;;81.80;29.02;;;1.70;99.90;;;;;;5003959;28;20040;-73
2021/01/25 07:46:08;;;;;;;83.60;31.52;;;1.70;99.90;;;;;;4999683;28;20034;-75
2021/01/25 07:48:35;;;;;;;80.72;30.10;;;1.70;99.90;;;;;;5010258;28;20036;-75
2021/01/25 07:51:00;;;;;;;79.07;30.23;;;1.70;99.90;;;;;;5008965;28;20025;-75
2021/01/25 07:53:34;;;;;;;73.68;27.58;;;1.70;99.90;;;;;;5022281;28;20774;-75
2021/01/25 07:56:00;;;;;;;80.32;29.67;;;1.70;99.90;;;;;;5005369;28;20498;-75
2021/01/25 07:58:25;;;;;;;74.22;28.08;;;1.60;99.90;;;;;;5003732;28;20124;-74
2021/01/25 08:01:28;;;;;;;74.68;27.83;;;1.60;99.90;;;;;;5009101;28;20116;-76
2021/01/25 08:04:01;;;;;;;74.25;27.15;;;1.70;99.90;;;;;;5003395;28;20034;-76
2021/01/25 08:06:34;;;;;;;83.55;31.92;;;1.70;99.90;;;;;;4999642;28;20143;-76
2021/01/25 08:09:03;;;;;;;79.28;31.15;;;1.80;99.90;;;;;;5020098;28;20565;-76
2021/01/25 08:11:30;;;;;;;74.68;28.02;;;1.80;99.90;;;;;;5000987;28;20081;-76
2021/01/25 08:14:13;;;;;;;75.72;28.70;;;1.80;99.90;;;;;;5006966;28;20038;-76
2021/01/25 08:16:44;;;;;;;73.60;27.75;;;1.90;99.90;;;;;;5002243;28;20494;-76
2021/01/25 08:19:22;;;;;;;76.43;28.13;;;1.80;99.90;;;;;;4999446;28;20080;-75
2021/01/25 08:22:29;;;;;;;80.35;27.98;;;1.80;99.90;;;;;;5003959;28;20091;-76
2021/01/25 08:24:56;;;;;;;73.95;28.77;;;1.80;99.90;;;;;;4992406;28;20840;-76
2021/01/25 08:27:23;;;;;;;72.60;29.38;;;1.80;99.90;;;;;;4997145;28;20038;-76
2021/01/25 08:29:58;;;;;;;68.82;27.30;;;1.90;99.90;;;;;;5004159;28;20045;-76
2021/01/25 08:32:28;;;;;;;74.60;30.23;;;1.90;99.90;;;;;;5002188;28;20482;-76
2021/01/25 08:34:59;;;;;;;67.93;27.52;;;1.90;99.90;;;;;;5000920;28;20822;-76
2021/01/25 08:37:28;;;;;;;74.38;29.73;;;2.00;99.90;;;;;;5000187;28;20077;-76
2021/01/25 08:39:54;;;;;;;69.40;29.05;;;2.00;99.90;;;;;;5014061;28;20037;-75
2021/01/25 08:42:30;;;;;;;72.50;29.85;;;2.00;99.90;;;;;;5008994;28;20096;-75
2021/01/25 08:45:05;;;;;;;76.55;28.88;;;2.10;99.90;;;;;;4998973;28;20045;-76
2021/01/25 08:47:33;;;;;;;71.15;27.50;;;2.20;99.90;;;;;;5009512;28;20045;-76
2021/01/25 08:50:00;;;;;;;66.15;27.85;;;2.20;99.90;;;;;;5008144;28;20077;-76
2021/01/25 08:52:39;;;;;;;72.25;27.95;;;2.30;99.90;;;;;;5004675;28;20599;-75
2021/01/25 08:55:13;;;;;;;72.80;29.60;;;2.30;99.90;;;;;;5014929;28;20087;-75
2021/01/25 08:57:42;;;;;;;63.05;26.73;;;2.40;99.90;;;;;;5003882;28;20037;-74
2021/01/25 09:00:17;;;;;;;74.13;30.20;;;2.50;99.90;;;;;;4999584;28;20042;-79
2021/01/25 09:02:55;;;;;;;67.70;25.77;;;2.40;99.90;;;;;;5004247;28;20660;-77
2021/01/25 09:05:21;;;;;;;73.57;29.45;;;2.40;99.90;;;;;;5004748;28;20029;-78
2021/01/25 09:07:51;;;;;;;65.13;28.58;;;2.20;99.90;;;;;;5004874;28;20033;-79
2021/01/25 09:10:16;;;;;;;65.63;28.20;;;2.50;99.90;;;;;;5015677;28;20052;-74
2021/01/25 09:12:42;;;;;;;68.22;30.10;;;2.60;99.90;;;;;;5010944;28;20490;-75
2021/01/25 09:15:09;;;;;;;67.10;28.88;;;3.00;99.90;;;;;;5003621;28;20030;-76
2021/01/25 09:17:35;;;;;;;61.38;27.48;;;3.10;99.90;;;;;;5008235;28;20169;-75
2021/01/25 09:20:02;;;;;;;64.78;28.00;;;3.00;99.90;;;;;;5008177;28;20038;-75
2021/01/25 09:22:28;;;;;;;60.40;27.13;;;3.10;99.90;;;;;;4999640;28;20922;-81
2021/01/25 09:24:54;;;;;;;59.70;27.55;;;3.20;99.90;;;;;;5001284;28;20029;-73
2021/01/25 09:27:20;;;;;;;61.13;25.63;;;3.20;99.90;;;;;;5005910;28;20030;-75
2021/01/25 09:29:46;;;;;;;57.95;26.77;;;3.30;99.90;;;;;;5009024;28;20553;-75
2021/01/25 09:32:11;;;;;;;59.55;27.48;;;3.20;99.90;;;;;;4997957;28;20072;-74
2021/01/25 09:34:37;;;;;;;57.50;25.55;;;3.20;99.90;;;;;;5012642;28;20044;-75
2021/01/25 09:37:05;;;;;;;57.85;24.60;;;3.20;99.90;;;;;;5005222;28;20041;-75
2021/01/25 09:39:30;;;;;;;56.33;25.33;;;3.20;99.90;;;;;;5014114;28;20049;-75
2021/01/25 09:41:56;;;;;;;60.45;24.80;;;3.00;99.90;;;;;;5009287;28;20088;-75
2021/01/25 09:44:22;;;;;;;55.60;23.83;;;3.00;99.90;;;;;;4986806;28;20065;-75
2021/01/25 09:46:48;;;;;;;56.63;24.40;;;2.80;99.90;;;;;;4991211;28;20037;-75
2021/01/25 09:49:14;;;;;;;54.97;23.30;;;2.90;99.90;;;;;;5010106;28;20057;-75
2021/01/25 09:51:40;;;;;;;53.03;23.48;;;2.70;99.90;;;;;;5007762;28;20041;-75
2021/01/25 09:54:06;;;;;;;59.90;23.60;;;2.70;99.90;;;;;;5015377;28;20047;-75
2021/01/25 09:56:32;;;;;;;57.00;24.00;;;2.80;99.90;;;;;;5006662;28;20811;-76
2021/01/25 09:58:58;;;;;;;52.13;22.55;;;2.70;99.90;;;;;;4998568;28;20487;-75
2021/01/25 10:01:24;;;;;;;51.63;23.58;;;2.90;99.90;;;;;;4999526;28;20088;-77
2021/01/25 10:03:49;;;;;;;53.10;23.55;;;3.00;99.90;;;;;;5000201;28;20482;-75
2021/01/25 10:06:15;;;;;;;52.53;21.73;;;3.00;99.90;;;;;;5013569;28;20039;-76
2021/01/25 10:08:41;;;;;;;50.20;22.23;;;3.20;99.90;;;;;;5006088;28;20049;-76
2021/01/25 10:11:07;;;;;;;46.20;20.88;;;3.40;99.90;;;;;;5005719;28;20029;-76
2021/01/25 10:13:34;;;;;;;43.95;20.73;;;3.30;99.90;;;;;;5009510;28;20060;-76
2021/01/25 10:16:00;;;;;;;41.88;20.90;;;3.30;99.90;;;;;;4999691;28;20609;-75
2021/01/25 10:18:26;;;;;;;45.58;19.85;;;3.30;99.90;;;;;;5006750;28;20062;-76
2021/01/25 10:20:52;;;;;;;41.60;19.35;;;3.30;99.90;;;;;;5009560;28;20203;-76
2021/01/25 10:23:18;;;;;;;40.63;18.98;;;3.30;99.90;;;;;;4998952;28;20050;-76
2021/01/25 10:25:44;;;;;;;40.63;18.60;;;3.30;99.90;;;;;;5004632;28;20498;-75
2021/01/25 10:28:10;;;;;;;33.80;17.10;;;3.40;99.90;;;;;;5011986;28;20025;-75
2021/01/25 10:30:35;;;;;;;40.90;19.23;;;3.40;99.90;;;;;;5005225;28;20033;-75
2021/01/25 10:33:02;;;;;;;39.17;19.05;;;3.30;99.90;;;;;;5006822;28;20037;-75
2021/01/25 10:35:28;;;;;;;41.95;19.30;;;3.30;99.90;;;;;;5017533;28;20083;-75
2021/01/25 10:37:54;;;;;;;44.53;19.63;;;3.40;99.90;;;;;;5009639;28;20144;-75
2021/01/25 10:40:21;;;;;;;41.05;19.92;;;3.30;99.90;;;;;;5016631;28;20032;-75
2021/01/25 10:42:47;;;;;;;41.90;20.17;;;3.40;99.90;;;;;;5001566;28;20932;-75
2021/01/25 10:45:13;;;;;;;39.85;19.13;;;3.40;99.90;;;;;;5008800;28;20036;-76
2021/01/25 10:47:40;;;;;;;41.60;19.73;;;3.40;99.90;;;;;;5020066;28;20033;-75
2021/01/25 10:50:11;;;;;;;46.13;19.20;;;3.40;99.90;;;;;;5013503;28;20026;-75
2021/01/25 10:52:37;;;;;;;41.38;19.15;;;3.30;99.90;;;;;;5020128;28;20117;-75
2021/01/25 10:55:03;;;;;;;39.70;19.60;;;3.40;99.90;;;;;;5016930;28;20397;-75
2021/01/25 10:57:31;;;;;;;41.67;19.92;;;3.30;99.90;;;;;;5011792;28;20161;-75
2021/01/25 10:59:57;;;;;;;43.65;19.40;;;3.30;99.90;;;;;;5010062;28;20041;-73
2021/01/25 11:02:23;;;;;;;47.13;20.23;;;3.40;99.90;;;;;;5014019;28;20042;-73
2021/01/25 11:04:48;;;;;;;58.25;26.23;;;3.40;99.90;;;;;;5016349;28;20064;-73
2021/01/25 11:07:14;;;;;;;42.30;19.85;;;3.40;99.90;;;;;;5016687;28;20236;-73
2021/01/25 11:09:40;;;;;;;46.88;21.60;;;3.50;99.90;;;;;;5016717;28;20061;-73
2021/01/25 11:12:06;;;;;;;49.97;22.40;;;3.40;99.90;;;;;;5012521;28;20037;-75
2021/01/25 11:14:32;;;;;;;43.70;20.50;;;3.50;99.90;;;;;;5009353;28;20789;-74
2021/01/25 11:16:58;;;;;;;40.92;20.38;;;3.50;99.90;;;;;;5018656;28;20033;-74
2021/01/25 11:19:23;;;;;;;41.97;20.08;;;3.50;99.90;;;;;;5013398;28;20621;-74
2021/01/25 11:21:49;;;;;;;40.85;17.75;;;3.50;99.90;;;;;;5012871;28;20045;-73
2021/01/25 11:24:15;;;;;;;39.92;19.98;;;3.50;99.90;;;;;;5018808;28;20133;-73
2021/01/25 11:26:41;;;;;;;46.78;21.63;;;3.50;99.90;;;;;;5007686;28;20437;-75
2021/01/25 11:29:09;;;;;;;45.95;22.30;;;3.80;99.90;;;;;;5003414;28;20030;-74
2021/01/25 11:31:35;;;;;;;44.80;20.70;;;3.90;99.90;;;;;;5015540;28;20029;-74
2021/01/25 11:34:01;;;;;;;44.00;20.25;;;3.80;99.90;;;;;;5006922;28;20049;-77
2021/01/25 11:36:27;;;;;;;47.08;22.42;;;3.70;99.90;;;;;;5003691;28;20823;-74
2021/01/25 11:38:53;;;;;;;41.90;20.17;;;3.50;99.90;;;;;;5013144;28;20038;-73
2021/01/25 11:41:19;;;;;;;41.30;18.75;;;3.70;99.90;;;;;;5012186;28;20072;-75
2021/01/25 11:43:45;;;;;;;47.33;21.90;;;3.80;99.90;;;;;;5007521;28;20179;-75
2021/01/25 11:46:11;;;;;;;46.40;21.70;;;3.80;99.90;;;;;;5010814;28;20033;-75
2021/01/25 11:48:37;;;;;;;46.35;21.88;;;3.90;99.90;;;;;;5015469;28;20037;-74
2021/01/25 11:51:03;;;;;;;40.88;20.27;;;3.90;99.90;;;;;;5005849;28;20045;-74
2021/01/25 11:53:30;;;;;;;47.63;21.35;;;4.10;99.90;;;;;;5017212;28;20079;-75
2021/01/25 11:55:56;;;;;;;42.33;19.38;;;4.10;99.90;;;;;;5010419;28;20632;-72
2021/01/25 11:58:22;;;;;;;45.20;21.98;;;4.20;99.90;;;;;;5011105;28;20028;-75
2021/01/25 12:00:48;;;;;;;45.97;22.05;;;4.20;99.90;;;;;;4999565;28;20619;-77
2021/01/25 12:03:13;;;;;;;46.95;22.70;;;4.20;99.90;;;;;;5016284;28;20037;-74
2021/01/25 12:05:39;;;;;;;47.65;22.70;;;4.20;99.90;;;;;;4995900;28;20132;-77
2021/01/25 12:08:05;;;;;;;48.55;21.88;;;4.10;99.90;;;;;;5008820;28;20136;-77
2021/01/25 12:10:31;;;;;;;56.05;25.58;;;4.00;99.90;;;;;;5002599;28;20033;-77
2021/01/25 12:12:57;;;;;;;50.47;23.30;;;4.00;99.90;;;;;;5005646;28;20033;-76
2021/01/25 12:15:26;;;;;;;43.85;20.38;;;4.10;99.90;;;;;;5010083;28;20038;-81
2021/01/25 12:17:51;;;;;;;38.78;18.17;;;4.10;99.90;;;;;;4988551;28;20041;-73
2021/01/25 12:20:17;;;;;;;40.20;18.60;;;4.10;99.90;;;;;;5010342;28;20038;-75
2021/01/25 12:22:43;;;;;;;45.42;20.52;;;4.00;99.90;;;;;;5006632;28;20037;-76
2021/01/25 12:25:09;;;;;;;43.80;20.05;;;3.90;99.90;;;;;;5010084;28;20147;-76
2021/01/25 12:27:35;;;;;;;38.22;19.23;;;3.80;99.90;;;;;;5008305;28;20650;-78
2021/01/25 12:30:01;;;;;;;42.97;20.48;;;4.10;99.90;;;;;;4992834;28;20045;-76
2021/01/25 12:32:27;;;;;;;39.17;17.85;;;4.30;99.90;;;;;;5006586;28;20045;-78
2021/01/25 12:34:53;;;;;;;33.92;15.80;;;4.70;99.90;;;;;;5005828;28;20045;-77
2021/01/25 12:37:19;;;;;;;37.10;16.27;;;5.30;99.90;;;;;;4995089;28;20136;-76